sensor_id;sensor_type;location;lat;lon;timestamp;temperature;humidity
3560;DHT22;1794;48.804;9.156;2022-07-29T00:02:24;19.50;99.90
3560;DHT22;1794;48.804;9.156;2022-07-29T00:04:50;19.60;99.90
3560;DHT22;1794;48.804;9.156;2022-07-29T00:07:17;19.40;99.90
3560;DHT22;1794;48.804;9.156;2022-07-29T00:09:44;19.40;99.90
3560;DHT22;1794;48.804;9.156;2022-07-29T00:12:11;19.40;99.90
3560;DHT22;1794;48.804;9.156;2022-07-29T00:14:39;19.20;99.90
3560;DHT22;1794;48.804;9.156;2022-07-29T00:17:05;19.00;99.90
3560;DHT22;1794;48.804;9.156;2022-07-29T00:19:32;19.10;99.90
3560;DHT22;1794;48.804;9.156;2022-07-29T00:22:00;19.20;99.90
3560;DHT22;1794;48.804;9.156;2022-07-29T00:24:27;19.10;99.90
3560;DHT22;1794;48.804;9.156;2022-07-29T00:26:53;19.00;99.90
3560;DHT22;1794;48.804;9.156;2022-07-29T00:29:20;19.00;99.90
3560;DHT22;1794;48.804;9.156;2022-07-29T00:31:48;19.00;99.90
3560;DHT22;1794;48.804;9.156;2022-07-29T00:34:15;19.10;99.90
3560;DHT22;1794;48.804;9.156;2022-07-29T00:36:56;19.10;99.90
3560;DHT22;1794;48.804;9.156;2022-07-29T00:39:22;19.00;99.90
3560;DHT22;1794;48.804;9.156;2022-07-29T00:41:49;18.90;99.90
3560;DHT22;1794;48.804;9.156;2022-07-29T00:44:16;19.00;99.90
3560;DHT22;1794;48.804;9.156;2022-07-29T00:46:43;19.00;99.90
3560;DHT22;1794;48.804;9.156;2022-07-29T00:49:11;19.20;99.90
3560;DHT22;1794;48.804;9.156;2022-07-29T00:51:38;19.40;99.90
3560;DHT22;1794;48.804;9.156;2022-07-29T00:54:05;19.40;99.90
3560;DHT22;1794;48.804;9.156;2022-07-29T00:56:33;19.50;99.90
3560;DHT22;1794;48.804;9.156;2022-07-29T00:59:00;19.50;99.90
3560;DHT22;1794;48.804;9.156;2022-07-29T01:01:27;19.60;99.90
3560;DHT22;1794;48.804;9.156;2022-07-29T01:03:54;19.60;99.90
3560;DHT22;1794;48.804;9.156;2022-07-29T01:06:23;19.60;99.90
3560;DHT22;1794;48.804;9.156;2022-07-29T01:08:51;19.60;99.90
3560;DHT22;1794;48.804;9.156;2022-07-29T01:11:18;19.50;99.90
3560;DHT22;1794;48.804;9.156;2022-07-29T01:13:46;19.50;99.90
3560;DHT22;1794;48.804;9.156;2022-07-29T01:16:18;19.50;99.90
3560;DHT22;1794;48.804;9.156;2022-07-29T01:18:49;19.40;99.90
3560;DHT22;1794;48.804;9.156;2022-07-29T01:21:44;19.30;99.90
3560;DHT22;1794;48.804;9.156;2022-07-29T01:24:39;19.40;99.90
3560;DHT22;1794;48.804;9.156;2022-07-29T01:27:20;19.50;99.90
3560;DHT22;1794;48.804;9.156;2022-07-29T01:29:56;19.50;99.90
3560;DHT22;1794;48.804;9.156;2022-07-29T01:32:26;19.20;99.90
3560;DHT22;1794;48.804;9.156;2022-07-29T01:34:57;19.20;99.90
3560;DHT22;1794;48.804;9.156;2022-07-29T01:37:28;19.20;99.90
3560;DHT22;1794;48.804;9.156;2022-07-29T01:39:57;19.10;99.90
3560;DHT22;1794;48.804;9.156;2022-07-29T01:42:29;19.10;99.90
3560;DHT22;1794;48.804;9.156;2022-07-29T01:45:02;19.10;99.90
3560;DHT22;1794;48.804;9.156;2022-07-29T01:47:35;19.10;99.90
3560;DHT22;1794;48.804;9.156;2022-07-29T01:50:07;19.00;99.90
3560;DHT22;1794;48.804;9.156;2022-07-29T01:52:39;18.90;99.90
3560;DHT22;1794;48.804;9.156;2022-07-29T01:55:13;19.00;99.90
3560;DHT22;1794;48.804;9.156;2022-07-29T01:57:47;19.00;99.90
3560;DHT22;1794;48.804;9.156;2022-07-29T02:00:17;19.10;99.90
3560;DHT22;1794;48.804;9.156;2022-07-29T02:02:45;19.10;99.90
3560;DHT22;1794;48.804;9.156;2022-07-29T02:05:15;19.10;99.90
3560;DHT22;1794;48.804;9.156;2022-07-29T02:07:43;19.10;99.90
3560;DHT22;1794;48.804;9.156;2022-07-29T02:10:12;19.10;99.90
3560;DHT22;1794;48.804;9.156;2022-07-29T02:12:40;19.10;99.90
3560;DHT22;1794;48.804;9.156;2022-07-29T02:15:09;19.10;99.90
3560;DHT22;1794;48.804;9.156;2022-07-29T02:17:42;19.10;99.90
3560;DHT22;1794;48.804;9.156;2022-07-29T02:20:10;19.10;99.90
3560;DHT22;1794;48.804;9.156;2022-07-29T02:22:38;18.90;99.90
3560;DHT22;1794;48.804;9.156;2022-07-29T02:25:07;18.80;99.90
3560;DHT22;1794;48.804;9.156;2022-07-29T02:27:35;18.90;99.90
3560;DHT22;1794;48.804;9.156;2022-07-29T02:30:04;18.90;99.90
3560;DHT22;1794;48.804;9.156;2022-07-29T02:32:35;19.00;99.90
3560;DHT22;1794;48.804;9.156;2022-07-29T02:35:05;19.10;99.90
3560;DHT22;1794;48.804;9.156;2022-07-29T02:37:33;19.00;99.90
3560;DHT22;1794;48.804;9.156;2022-07-29T02:40:00;18.90;99.90
3560;DHT22;1794;48.804;9.156;2022-07-29T02:42:28;18.70;99.90
3560;DHT22;1794;48.804;9.156;2022-07-29T02:44:55;18.50;99.90
3560;DHT22;1794;48.804;9.156;2022-07-29T02:47:27;18.50;99.90
3560;DHT22;1794;48.804;9.156;2022-07-29T02:50:00;18.50;99.90
3560;DHT22;1794;48.804;9.156;2022-07-29T02:52:37;18.60;99.90
3560;DHT22;1794;48.804;9.156;2022-07-29T02:55:11;18.80;99.90
3560;DHT22;1794;48.804;9.156;2022-07-29T02:57:43;18.50;99.90
3560;DHT22;1794;48.804;9.156;2022-07-29T03:00:12;18.00;99.90
3560;DHT22;1794;48.804;9.156;2022-07-29T03:02:42;17.90;99.90
3560;DHT22;1794;48.804;9.156;2022-07-29T03:05:14;17.80;99.90
3560;DHT22;1794;48.804;9.156;2022-07-29T03:07:45;17.80;99.90
3560;DHT22;1794;48.804;9.156;2022-07-29T03:10:13;17.80;99.90
3560;DHT22;1794;48.804;9.156;2022-07-29T03:12:40;17.70;99.90
3560;DHT22;1794;48.804;9.156;2022-07-29T03:15:08;17.50;99.90
3560;DHT22;1794;48.804;9.156;2022-07-29T03:17:37;17.40;99.90
3560;DHT22;1794;48.804;9.156;2022-07-29T03:20:07;17.30;99.90
3560;DHT22;1794;48.804;9.156;2022-07-29T03:22:39;17.30;99.90
3560;DHT22;1794;48.804;9.156;2022-07-29T03:25:11;17.20;99.90
3560;DHT22;1794;48.804;9.156;2022-07-29T03:27:38;17.20;99.90
3560;DHT22;1794;48.804;9.156;2022-07-29T03:30:06;17.20;99.90
3560;DHT22;1794;48.804;9.156;2022-07-29T03:32:33;17.20;99.90
3560;DHT22;1794;48.804;9.156;2022-07-29T03:34:59;17.20;99.90
3560;DHT22;1794;48.804;9.156;2022-07-29T03:37:26;17.20;99.90
3560;DHT22;1794;48.804;9.156;2022-07-29T03:39:55;17.10;99.90
3560;DHT22;1794;48.804;9.156;2022-07-29T03:42:25;17.00;99.90
3560;DHT22;1794;48.804;9.156;2022-07-29T03:44:54;16.90;99.90
3560;DHT22;1794;48.804;9.156;2022-07-29T03:47:24;16.90;99.90
3560;DHT22;1794;48.804;9.156;2022-07-29T03:49:56;17.00;99.90
3560;DHT22;1794;48.804;9.156;2022-07-29T03:52:25;17.00;99.90
3560;DHT22;1794;48.804;9.156;2022-07-29T03:54:52;16.90;99.90
3560;DHT22;1794;48.804;9.156;2022-07-29T03:57:22;16.90;99.90
3560;DHT22;1794;48.804;9.156;2022-07-29T03:59:52;16.90;99.90
3560;DHT22;1794;48.804;9.156;2022-07-29T04:02:19;16.90;99.90
3560;DHT22;1794;48.804;9.156;2022-07-29T04:04:46;16.80;99.90
3560;DHT22;1794;48.804;9.156;2022-07-29T04:07:14;16.90;99.90
3560;DHT22;1794;48.804;9.156;2022-07-29T04:09:41;16.90;99.90
3560;DHT22;1794;48.804;9.156;2022-07-29T04:12:09;16.90;99.90
3560;DHT22;1794;48.804;9.156;2022-07-29T04:14:36;16.90;99.90
3560;DHT22;1794;48.804;9.156;2022-07-29T04:17:05;16.90;99.90
3560;DHT22;1794;48.804;9.156;2022-07-29T04:19:32;16.90;99.90
3560;DHT22;1794;48.804;9.156;2022-07-29T04:22:00;16.90;99.90
3560;DHT22;1794;48.804;9.156;2022-07-29T04:24:27;16.90;99.90
3560;DHT22;1794;48.804;9.156;2022-07-29T04:26:54;16.90;99.90
3560;DHT22;1794;48.804;9.156;2022-07-29T04:29:21;16.90;99.90
3560;DHT22;1794;48.804;9.156;2022-07-29T04:31:48;16.90;99.90
3560;DHT22;1794;48.804;9.156;2022-07-29T04:34:16;17.00;99.90
3560;DHT22;1794;48.804;9.156;2022-07-29T04:36:42;17.10;99.90
3560;DHT22;1794;48.804;9.156;2022-07-29T04:39:09;17.00;99.90
3560;DHT22;1794;48.804;9.156;2022-07-29T04:41:36;17.00;99.90
3560;DHT22;1794;48.804;9.156;2022-07-29T04:44:03;17.10;99.90
3560;DHT22;1794;48.804;9.156;2022-07-29T04:46:31;17.00;99.90
3560;DHT22;1794;48.804;9.156;2022-07-29T04:48:58;17.00;99.90
3560;DHT22;1794;48.804;9.156;2022-07-29T04:51:26;17.10;99.90
3560;DHT22;1794;48.804;9.156;2022-07-29T04:53:52;17.20;99.90
3560;DHT22;1794;48.804;9.156;2022-07-29T04:56:19;17.30;99.90
3560;DHT22;1794;48.804;9.156;2022-07-29T04:58:46;17.30;99.90
3560;DHT22;1794;48.804;9.156;2022-07-29T05:01:13;17.30;99.90
3560;DHT22;1794;48.804;9.156;2022-07-29T05:03:40;17.40;99.90
3560;DHT22;1794;48.804;9.156;2022-07-29T05:06:06;17.70;99.90
3560;DHT22;1794;48.804;9.156;2022-07-29T05:08:34;17.80;99.90
3560;DHT22;1794;48.804;9.156;2022-07-29T05:11:01;18.10;99.90
3560;DHT22;1794;48.804;9.156;2022-07-29T05:13:29;18.10;99.90
3560;DHT22;1794;48.804;9.156;2022-07-29T05:15:55;18.20;99.90
3560;DHT22;1794;48.804;9.156;2022-07-29T05:18:23;18.60;99.90
3560;DHT22;1794;48.804;9.156;2022-07-29T05:20:50;18.90;99.90
3560;DHT22;1794;48.804;9.156;2022-07-29T05:23:17;19.30;99.90
3560;DHT22;1794;48.804;9.156;2022-07-29T05:25:45;19.60;99.90
3560;DHT22;1794;48.804;9.156;2022-07-29T05:28:12;20.10;99.90
3560;DHT22;1794;48.804;9.156;2022-07-29T05:30:39;20.50;99.90
3560;DHT22;1794;48.804;9.156;2022-07-29T05:33:06;20.70;80.80
3560;DHT22;1794;48.804;9.156;2022-07-29T05:35:32;20.60;99.90
3560;DHT22;1794;48.804;9.156;2022-07-29T05:38:00;20.80;99.90
3560;DHT22;1794;48.804;9.156;2022-07-29T05:40:27;20.90;92.30
3560;DHT22;1794;48.804;9.156;2022-07-29T05:42:55;21.10;46.00
3560;DHT22;1794;48.804;9.156;2022-07-29T05:45:22;21.50;23.80
3560;DHT22;1794;48.804;9.156;2022-07-29T05:47:49;22.60;1.00
3560;DHT22;1794;48.804;9.156;2022-07-29T05:50:16;22.90;1.00
3560;DHT22;1794;48.804;9.156;2022-07-29T05:52:43;23.50;1.00
3560;DHT22;1794;48.804;9.156;2022-07-29T05:55:10;24.10;1.00
3560;DHT22;1794;48.804;9.156;2022-07-29T05:57:36;24.40;1.00
3560;DHT22;1794;48.804;9.156;2022-07-29T06:00:06;24.60;1.00
3560;DHT22;1794;48.804;9.156;2022-07-29T06:02:33;24.00;1.00
3560;DHT22;1794;48.804;9.156;2022-07-29T06:04:59;24.10;1.00
3560;DHT22;1794;48.804;9.156;2022-07-29T06:07:26;24.50;1.00
3560;DHT22;1794;48.804;9.156;2022-07-29T06:09:53;24.80;1.00
3560;DHT22;1794;48.804;9.156;2022-07-29T06:12:19;24.90;1.00
3560;DHT22;1794;48.804;9.156;2022-07-29T06:14:46;24.20;1.00
3560;DHT22;1794;48.804;9.156;2022-07-29T06:17:15;24.10;1.00
3560;DHT22;1794;48.804;9.156;2022-07-29T06:19:42;24.50;1.00
3560;DHT22;1794;48.804;9.156;2022-07-29T06:22:09;25.20;1.00
3560;DHT22;1794;48.804;9.156;2022-07-29T06:24:36;25.20;1.00
3560;DHT22;1794;48.804;9.156;2022-07-29T06:27:06;26.10;1.00
3560;DHT22;1794;48.804;9.156;2022-07-29T06:29:35;26.20;1.00
3560;DHT22;1794;48.804;9.156;2022-07-29T06:32:01;25.90;1.00
3560;DHT22;1794;48.804;9.156;2022-07-29T06:34:30;25.80;1.00
3560;DHT22;1794;48.804;9.156;2022-07-29T06:36:56;26.50;1.00
3560;DHT22;1794;48.804;9.156;2022-07-29T06:39:23;26.70;1.00
3560;DHT22;1794;48.804;9.156;2022-07-29T06:41:50;25.10;1.00
3560;DHT22;1794;48.804;9.156;2022-07-29T06:44:17;24.80;1.00
3560;DHT22;1794;48.804;9.156;2022-07-29T06:46:44;25.50;1.00
3560;DHT22;1794;48.804;9.156;2022-07-29T06:49:12;24.90;1.00
3560;DHT22;1794;48.804;9.156;2022-07-29T06:51:41;26.20;1.00
3560;DHT22;1794;48.804;9.156;2022-07-29T06:54:07;27.10;99.90
3560;DHT22;1794;48.804;9.156;2022-07-29T06:56:35;26.60;99.90
3560;DHT22;1794;48.804;9.156;2022-07-29T06:59:02;26.00;1.00
3560;DHT22;1794;48.804;9.156;2022-07-29T07:01:29;26.60;99.90
3560;DHT22;1794;48.804;9.156;2022-07-29T07:03:56;27.20;99.90
3560;DHT22;1794;48.804;9.156;2022-07-29T07:06:23;27.50;99.90
3560;DHT22;1794;48.804;9.156;2022-07-29T07:08:51;27.00;1.00
3560;DHT22;1794;48.804;9.156;2022-07-29T07:11:17;27.90;1.00
3560;DHT22;1794;48.804;9.156;2022-07-29T07:13:44;27.60;1.00
3560;DHT22;1794;48.804;9.156;2022-07-29T07:16:11;28.90;1.00
3560;DHT22;1794;48.804;9.156;2022-07-29T07:18:37;29.30;99.90
3560;DHT22;1794;48.804;9.156;2022-07-29T07:21:04;28.10;62.20
3560;DHT22;1794;48.804;9.156;2022-07-29T07:23:31;28.00;1.00
3560;DHT22;1794;48.804;9.156;2022-07-29T07:25:59;28.50;1.00
3560;DHT22;1794;48.804;9.156;2022-07-29T07:28:26;28.70;50.40
3560;DHT22;1794;48.804;9.156;2022-07-29T07:30:52;28.80;99.90
3560;DHT22;1794;48.804;9.156;2022-07-29T07:33:19;28.20;99.90
3560;DHT22;1794;48.804;9.156;2022-07-29T07:35:46;28.30;1.00
3560;DHT22;1794;48.804;9.156;2022-07-29T07:38:13;27.00;1.00
3560;DHT22;1794;48.804;9.156;2022-07-29T07:40:40;26.80;99.90
3560;DHT22;1794;48.804;9.156;2022-07-29T07:43:08;27.80;1.00
3560;DHT22;1794;48.804;9.156;2022-07-29T07:45:35;28.60;1.00
3560;DHT22;1794;48.804;9.156;2022-07-29T07:48:02;28.60;1.50
3560;DHT22;1794;48.804;9.156;2022-07-29T07:50:29;29.20;1.00
3560;DHT22;1794;48.804;9.156;2022-07-29T07:52:56;29.70;1.00
3560;DHT22;1794;48.804;9.156;2022-07-29T07:55:24;29.50;1.00
3560;DHT22;1794;48.804;9.156;2022-07-29T07:57:51;29.80;99.90
3560;DHT22;1794;48.804;9.156;2022-07-29T08:00:20;30.00;1.00
3560;DHT22;1794;48.804;9.156;2022-07-29T08:02:46;30.10;99.90
3560;DHT22;1794;48.804;9.156;2022-07-29T08:05:14;29.60;1.00
3560;DHT22;1794;48.804;9.156;2022-07-29T08:07:43;27.40;99.90
3560;DHT22;1794;48.804;9.156;2022-07-29T08:10:10;28.60;99.90
3560;DHT22;1794;48.804;9.156;2022-07-29T08:12:37;29.50;1.00
3560;DHT22;1794;48.804;9.156;2022-07-29T08:15:04;30.40;1.00
3560;DHT22;1794;48.804;9.156;2022-07-29T08:17:34;30.40;99.90
3560;DHT22;1794;48.804;9.156;2022-07-29T08:20:01;28.60;1.00
3560;DHT22;1794;48.804;9.156;2022-07-29T08:22:28;29.60;99.90
3560;DHT22;1794;48.804;9.156;2022-07-29T08:24:54;29.50;1.00
3560;DHT22;1794;48.804;9.156;2022-07-29T08:27:21;31.30;99.90
3560;DHT22;1794;48.804;9.156;2022-07-29T08:29:48;31.90;99.90
3560;DHT22;1794;48.804;9.156;2022-07-29T08:32:15;31.80;99.90
3560;DHT22;1794;48.804;9.156;2022-07-29T08:34:43;32.10;1.00
3560;DHT22;1794;48.804;9.156;2022-07-29T08:37:11;31.30;67.40
3560;DHT22;1794;48.804;9.156;2022-07-29T08:39:38;31.60;88.00
3560;DHT22;1794;48.804;9.156;2022-07-29T08:42:05;32.40;1.00
3560;DHT22;1794;48.804;9.156;2022-07-29T08:44:33;32.50;1.00
3560;DHT22;1794;48.804;9.156;2022-07-29T08:47:00;32.70;99.90
3560;DHT22;1794;48.804;9.156;2022-07-29T08:49:26;33.00;99.90
3560;DHT22;1794;48.804;9.156;2022-07-29T08:51:55;32.20;99.90
3560;DHT22;1794;48.804;9.156;2022-07-29T08:54:23;32.30;99.90
3560;DHT22;1794;48.804;9.156;2022-07-29T08:56:51;30.90;1.00
3560;DHT22;1794;48.804;9.156;2022-07-29T08:59:20;32.20;99.90
3560;DHT22;1794;48.804;9.156;2022-07-29T09:01:48;34.00;1.00
3560;DHT22;1794;48.804;9.156;2022-07-29T09:04:16;34.60;1.00
3560;DHT22;1794;48.804;9.156;2022-07-29T09:06:46;34.50;1.00
3560;DHT22;1794;48.804;9.156;2022-07-29T09:09:15;33.70;1.00
3560;DHT22;1794;48.804;9.156;2022-07-29T09:11:42;35.30;99.90
3560;DHT22;1794;48.804;9.156;2022-07-29T09:14:11;36.70;99.90
3560;DHT22;1794;48.804;9.156;2022-07-29T09:16:51;37.70;99.90
3560;DHT22;1794;48.804;9.156;2022-07-29T09:19:26;38.00;99.90
3560;DHT22;1794;48.804;9.156;2022-07-29T09:21:54;36.70;99.90
3560;DHT22;1794;48.804;9.156;2022-07-29T09:24:35;35.30;1.00
3560;DHT22;1794;48.804;9.156;2022-07-29T09:27:12;34.40;1.00
3560;DHT22;1794;48.804;9.156;2022-07-29T09:29:44;36.00;1.00
3560;DHT22;1794;48.804;9.156;2022-07-29T09:32:11;33.00;99.90
3560;DHT22;1794;48.804;9.156;2022-07-29T09:34:38;34.70;1.00
3560;DHT22;1794;48.804;9.156;2022-07-29T09:37:05;36.00;1.00
3560;DHT22;1794;48.804;9.156;2022-07-29T09:39:35;36.80;1.00
3560;DHT22;1794;48.804;9.156;2022-07-29T09:42:04;36.90;1.00
3560;DHT22;1794;48.804;9.156;2022-07-29T09:44:44;33.60;1.00
3560;DHT22;1794;48.804;9.156;2022-07-29T09:47:11;35.60;99.90
3560;DHT22;1794;48.804;9.156;2022-07-29T09:49:51;36.80;99.90
3560;DHT22;1794;48.804;9.156;2022-07-29T09:52:20;36.80;99.90
3560;DHT22;1794;48.804;9.156;2022-07-29T09:54:48;36.30;99.90
3560;DHT22;1794;48.804;9.156;2022-07-29T09:57:24;33.10;99.90
3560;DHT22;1794;48.804;9.156;2022-07-29T09:59:58;34.50;1.00
3560;DHT22;1794;48.804;9.156;2022-07-29T10:02:30;34.30;99.30
3560;DHT22;1794;48.804;9.156;2022-07-29T10:04:57;32.20;1.00
3560;DHT22;1794;48.804;9.156;2022-07-29T10:07:24;30.40;99.90
3560;DHT22;1794;48.804;9.156;2022-07-29T10:09:55;30.90;1.00
3560;DHT22;1794;48.804;9.156;2022-07-29T10:12:23;30.20;1.00
3560;DHT22;1794;48.804;9.156;2022-07-29T10:14:50;30.50;1.00
3560;DHT22;1794;48.804;9.156;2022-07-29T10:17:18;30.40;1.00
3560;DHT22;1794;48.804;9.156;2022-07-29T10:19:45;30.50;1.00
3560;DHT22;1794;48.804;9.156;2022-07-29T10:22:12;30.00;1.00
3560;DHT22;1794;48.804;9.156;2022-07-29T10:24:39;29.20;1.00
3560;DHT22;1794;48.804;9.156;2022-07-29T10:27:08;28.70;1.00
3560;DHT22;1794;48.804;9.156;2022-07-29T10:29:35;28.60;20.70
3560;DHT22;1794;48.804;9.156;2022-07-29T10:32:21;28.30;99.90
3560;DHT22;1794;48.804;9.156;2022-07-29T10:35:06;28.00;1.00
3560;DHT22;1794;48.804;9.156;2022-07-29T10:37:46;27.10;99.90
3560;DHT22;1794;48.804;9.156;2022-07-29T10:40:22;27.00;1.00
3560;DHT22;1794;48.804;9.156;2022-07-29T10:43:18;26.80;1.00
3560;DHT22;1794;48.804;9.156;2022-07-29T10:45:47;26.80;1.00
3560;DHT22;1794;48.804;9.156;2022-07-29T10:48:14;26.70;99.90
3560;DHT22;1794;48.804;9.156;2022-07-29T10:50:54;26.50;1.00
3560;DHT22;1794;48.804;9.156;2022-07-29T10:53:21;26.20;99.90
3560;DHT22;1794;48.804;9.156;2022-07-29T10:55:49;26.00;99.90
3560;DHT22;1794;48.804;9.156;2022-07-29T10:58:19;26.00;99.90
3560;DHT22;1794;48.804;9.156;2022-07-29T11:00:47;25.60;99.90
3560;DHT22;1794;48.804;9.156;2022-07-29T11:05:54;25.10;99.90
3560;DHT22;1794;48.804;9.156;2022-07-29T11:08:23;24.20;99.90
3560;DHT22;1794;48.804;9.156;2022-07-29T11:10:52;23.60;1.00
3560;DHT22;1794;48.804;9.156;2022-07-29T11:13:46;23.10;1.00
3560;DHT22;1794;48.804;9.156;2022-07-29T11:16:13;22.70;1.00
3560;DHT22;1794;48.804;9.156;2022-07-29T11:21:45;22.20;81.80
3560;DHT22;1794;48.804;9.156;2022-07-29T11:24:16;21.90;93.80
3560;DHT22;1794;48.804;9.156;2022-07-29T11:26:43;21.70;63.10
3560;DHT22;1794;48.804;9.156;2022-07-29T11:29:19;21.60;99.90
3560;DHT22;1794;48.804;9.156;2022-07-29T11:31:49;21.50;84.90
3560;DHT22;1794;48.804;9.156;2022-07-29T11:34:24;21.80;85.50
3560;DHT22;1794;48.804;9.156;2022-07-29T11:37:16;22.10;83.20
3560;DHT22;1794;48.804;9.156;2022-07-29T11:39:44;22.40;75.70
3560;DHT22;1794;48.804;9.156;2022-07-29T11:42:42;22.40;55.20
3560;DHT22;1794;48.804;9.156;2022-07-29T11:45:14;22.30;81.80
3560;DHT22;1794;48.804;9.156;2022-07-29T11:47:47;22.50;46.90
3560;DHT22;1794;48.804;9.156;2022-07-29T11:50:16;22.50;75.00
3560;DHT22;1794;48.804;9.156;2022-07-29T11:52:44;22.10;37.70
3560;DHT22;1794;48.804;9.156;2022-07-29T11:55:14;22.00;34.60
3560;DHT22;1794;48.804;9.156;2022-07-29T11:57:47;22.00;29.80
3560;DHT22;1794;48.804;9.156;2022-07-29T12:00:24;22.30;1.00
3560;DHT22;1794;48.804;9.156;2022-07-29T12:02:51;22.90;1.00
3560;DHT22;1794;48.804;9.156;2022-07-29T12:05:18;23.10;1.00
3560;DHT22;1794;48.804;9.156;2022-07-29T12:07:46;23.40;1.00
3560;DHT22;1794;48.804;9.156;2022-07-29T12:10:14;23.90;1.00
3560;DHT22;1794;48.804;9.156;2022-07-29T12:12:41;24.30;1.00
3560;DHT22;1794;48.804;9.156;2022-07-29T12:15:12;24.40;1.00
3560;DHT22;1794;48.804;9.156;2022-07-29T12:17:42;24.20;1.00
3560;DHT22;1794;48.804;9.156;2022-07-29T12:20:09;23.90;1.00
3560;DHT22;1794;48.804;9.156;2022-07-29T12:22:37;24.40;1.00
3560;DHT22;1794;48.804;9.156;2022-07-29T12:25:07;25.10;1.00
3560;DHT22;1794;48.804;9.156;2022-07-29T12:27:35;24.60;1.00
3560;DHT22;1794;48.804;9.156;2022-07-29T12:30:05;24.40;1.00
3560;DHT22;1794;48.804;9.156;2022-07-29T12:32:33;24.10;1.00
3560;DHT22;1794;48.804;9.156;2022-07-29T12:35:03;23.70;1.00
3560;DHT22;1794;48.804;9.156;2022-07-29T12:37:31;23.20;1.00
3560;DHT22;1794;48.804;9.156;2022-07-29T12:39:59;23.20;1.00
3560;DHT22;1794;48.804;9.156;2022-07-29T12:42:26;23.20;1.00
3560;DHT22;1794;48.804;9.156;2022-07-29T12:44:53;23.10;1.00
3560;DHT22;1794;48.804;9.156;2022-07-29T12:47:20;23.10;1.00
3560;DHT22;1794;48.804;9.156;2022-07-29T12:49:48;22.70;1.00
3560;DHT22;1794;48.804;9.156;2022-07-29T12:52:31;22.60;1.00
3560;DHT22;1794;48.804;9.156;2022-07-29T12:54:58;22.80;1.00
3560;DHT22;1794;48.804;9.156;2022-07-29T12:57:26;22.70;1.00
3560;DHT22;1794;48.804;9.156;2022-07-29T13:00:02;22.40;1.00
3560;DHT22;1794;48.804;9.156;2022-07-29T13:02:29;22.40;1.00
3560;DHT22;1794;48.804;9.156;2022-07-29T13:04:57;22.30;1.00
3560;DHT22;1794;48.804;9.156;2022-07-29T13:07:24;22.40;1.00
3560;DHT22;1794;48.804;9.156;2022-07-29T13:09:53;22.50;1.00
3560;DHT22;1794;48.804;9.156;2022-07-29T13:12:20;22.50;1.00
3560;DHT22;1794;48.804;9.156;2022-07-29T13:14:49;22.20;1.00
3560;DHT22;1794;48.804;9.156;2022-07-29T13:17:17;22.00;1.00
3560;DHT22;1794;48.804;9.156;2022-07-29T13:19:45;22.00;1.00
3560;DHT22;1794;48.804;9.156;2022-07-29T13:22:14;22.00;1.00
3560;DHT22;1794;48.804;9.156;2022-07-29T13:24:52;21.80;1.00
3560;DHT22;1794;48.804;9.156;2022-07-29T13:27:21;21.50;11.60
3560;DHT22;1794;48.804;9.156;2022-07-29T13:29:48;21.40;63.90
3560;DHT22;1794;48.804;9.156;2022-07-29T13:32:16;21.20;93.80
3560;DHT22;1794;48.804;9.156;2022-07-29T13:34:43;20.80;99.90
3560;DHT22;1794;48.804;9.156;2022-07-29T13:37:10;20.80;99.90
3560;DHT22;1794;48.804;9.156;2022-07-29T13:39:37;20.50;99.90
3560;DHT22;1794;48.804;9.156;2022-07-29T13:42:06;20.60;99.90
3560;DHT22;1794;48.804;9.156;2022-07-29T13:44:34;20.70;99.90
3560;DHT22;1794;48.804;9.156;2022-07-29T13:47:01;20.70;99.90
3560;DHT22;1794;48.804;9.156;2022-07-29T13:49:28;20.90;99.90
3560;DHT22;1794;48.804;9.156;2022-07-29T13:51:54;21.10;99.90
3560;DHT22;1794;48.804;9.156;2022-07-29T13:54:21;21.20;99.90
3560;DHT22;1794;48.804;9.156;2022-07-29T13:56:48;21.50;99.90
3560;DHT22;1794;48.804;9.156;2022-07-29T13:59:17;21.70;99.90
3560;DHT22;1794;48.804;9.156;2022-07-29T14:01:44;21.90;59.40
3560;DHT22;1794;48.804;9.156;2022-07-29T14:04:11;22.30;30.70
3560;DHT22;1794;48.804;9.156;2022-07-29T14:06:38;22.70;6.30
3560;DHT22;1794;48.804;9.156;2022-07-29T14:09:05;22.60;1.70
3560;DHT22;1794;48.804;9.156;2022-07-29T14:11:34;22.80;1.00
3560;DHT22;1794;48.804;9.156;2022-07-29T14:14:00;23.00;1.00
3560;DHT22;1794;48.804;9.156;2022-07-29T14:16:29;23.10;1.00
3560;DHT22;1794;48.804;9.156;2022-07-29T14:18:55;23.40;1.00
3560;DHT22;1794;48.804;9.156;2022-07-29T14:21:22;23.60;1.00
3560;DHT22;1794;48.804;9.156;2022-07-29T14:23:49;23.50;1.00
3560;DHT22;1794;48.804;9.156;2022-07-29T14:26:17;23.40;1.00
3560;DHT22;1794;48.804;9.156;2022-07-29T14:28:44;23.50;1.00
3560;DHT22;1794;48.804;9.156;2022-07-29T14:31:10;23.60;1.00
3560;DHT22;1794;48.804;9.156;2022-07-29T14:33:39;23.80;1.00
3560;DHT22;1794;48.804;9.156;2022-07-29T14:36:06;24.00;1.00
3560;DHT22;1794;48.804;9.156;2022-07-29T14:38:33;24.00;1.00
3560;DHT22;1794;48.804;9.156;2022-07-29T14:41:00;24.20;1.00
3560;DHT22;1794;48.804;9.156;2022-07-29T14:43:27;24.00;1.00
3560;DHT22;1794;48.804;9.156;2022-07-29T14:45:53;24.20;1.00
3560;DHT22;1794;48.804;9.156;2022-07-29T14:48:20;24.30;1.00
3560;DHT22;1794;48.804;9.156;2022-07-29T14:50:48;24.30;1.00
3560;DHT22;1794;48.804;9.156;2022-07-29T14:53:15;24.20;1.00
3560;DHT22;1794;48.804;9.156;2022-07-29T14:55:42;24.40;1.00
3560;DHT22;1794;48.804;9.156;2022-07-29T14:58:08;24.60;1.00
3560;DHT22;1794;48.804;9.156;2022-07-29T15:00:35;24.80;1.00
3560;DHT22;1794;48.804;9.156;2022-07-29T15:03:03;24.90;1.00
3560;DHT22;1794;48.804;9.156;2022-07-29T15:05:30;24.90;1.00
3560;DHT22;1794;48.804;9.156;2022-07-29T15:07:58;24.90;1.00
3560;DHT22;1794;48.804;9.156;2022-07-29T15:10:25;24.90;1.00
3560;DHT22;1794;48.804;9.156;2022-07-29T15:12:52;24.80;1.00
3560;DHT22;1794;48.804;9.156;2022-07-29T15:15:19;25.00;1.00
3560;DHT22;1794;48.804;9.156;2022-07-29T15:17:46;25.00;1.00
3560;DHT22;1794;48.804;9.156;2022-07-29T15:20:14;24.70;1.00
3560;DHT22;1794;48.804;9.156;2022-07-29T15:22:41;24.80;1.00
3560;DHT22;1794;48.804;9.156;2022-07-29T15:25:10;24.80;1.00
3560;DHT22;1794;48.804;9.156;2022-07-29T15:27:36;24.80;1.00
3560;DHT22;1794;48.804;9.156;2022-07-29T15:30:04;24.90;1.00
3560;DHT22;1794;48.804;9.156;2022-07-29T15:32:31;24.80;1.00
3560;DHT22;1794;48.804;9.156;2022-07-29T15:34:58;24.90;1.00
3560;DHT22;1794;48.804;9.156;2022-07-29T15:37:24;24.90;1.00
3560;DHT22;1794;48.804;9.156;2022-07-29T15:39:53;24.90;1.00
3560;DHT22;1794;48.804;9.156;2022-07-29T15:42:21;24.80;1.00
3560;DHT22;1794;48.804;9.156;2022-07-29T15:44:48;24.80;1.00
3560;DHT22;1794;48.804;9.156;2022-07-29T15:47:15;24.80;1.00
3560;DHT22;1794;48.804;9.156;2022-07-29T15:49:42;24.90;1.00
3560;DHT22;1794;48.804;9.156;2022-07-29T15:52:09;24.90;1.00
3560;DHT22;1794;48.804;9.156;2022-07-29T15:54:37;24.90;1.00
3560;DHT22;1794;48.804;9.156;2022-07-29T15:57:06;24.80;1.00
3560;DHT22;1794;48.804;9.156;2022-07-29T15:59:35;24.60;1.00
3560;DHT22;1794;48.804;9.156;2022-07-29T16:02:02;24.70;1.00
3560;DHT22;1794;48.804;9.156;2022-07-29T16:04:29;24.70;1.00
3560;DHT22;1794;48.804;9.156;2022-07-29T16:06:56;24.80;1.00
3560;DHT22;1794;48.804;9.156;2022-07-29T16:09:23;24.70;1.00
3560;DHT22;1794;48.804;9.156;2022-07-29T16:11:50;24.70;1.00
3560;DHT22;1794;48.804;9.156;2022-07-29T16:14:19;24.90;1.00
3560;DHT22;1794;48.804;9.156;2022-07-29T16:16:47;24.80;1.00
3560;DHT22;1794;48.804;9.156;2022-07-29T16:19:15;24.70;1.00
3560;DHT22;1794;48.804;9.156;2022-07-29T16:21:42;24.70;1.00
3560;DHT22;1794;48.804;9.156;2022-07-29T16:24:08;25.00;1.00
3560;DHT22;1794;48.804;9.156;2022-07-29T16:26:35;24.90;1.00